Starks, Louisiana
Current Conditions -  °F | °C
As of 11:35 PM on Saturday 22 Nov 2014 (Local Time) from K5R8 Reporting Station
Thunderstorm Thunderstorm  
Wind Chill: 65°   Ceiling: 400
Heat Index: 65°   Visibility: 10mi
Dew Point: 65°   Wind: 12mph
Humidity: 100%   Direction: 120°ESE
Pressure: 29.76"   Gusts: 21mph
Location:  30.32°N, 93.66°W
Report Text: K5R8 230535Z AUTO 12010G18KT 10SM VCTS OVC004 18/18 A2976 RMK AO2 LTG DSNT SE AND S T01810181
Loading
Personal Weather Stations






























Interactive Weather Map New forecast layout! Learn more

10-Day Weather Forecast

Advertisements
Track Severe Weather on mobile